CA-0127 weather

CLOSED Edmunston (Fraser Papers Inc) Heliport
New Brunswick, Canada

Public forecast

Using degrees Celsius for public forecast. Weather courtesy of forecast.io.

Closest aviation weather report (METAR) to Edmunston (Fraser Papers Inc) Heliport

Closest report is Northern Aroostook Regional Airport, 4.9 nm (9.2 km) S. Retrieved 2019/10/15 18:53 UTC (1 hour ago):

KFVE 151853Z AUTO 25013KT 10SM FEW045 11/M01 A2994 RMK AO2 SLP143 T01111006

Closest aviation forecast (TAF) to Edmunston (Fraser Papers Inc) Heliport

Closest forecast is Northern Aroostook Regional Airport, 4.9 nm (9.2 km) S. Retrieved 2019/10/15 18:40 UTC (2 hours ago):

TAF KFVE 151729Z 1518/1618 25007KT P6SM FEW035 FM160000 23003KT P6SM FEW090 FM161600 19005KT P6SM SCT060